Ride Results

Batlow (20-11-2005)
Ride distance: 100.0 km Elevator

Outcomes - Batlow (20-11-2005)
Division No. of Entries Retired / DNE Completed Withdrawn Ineligible V/O Percentage Completed
HW 11 4 3 - - 4 63.64%
MW 13 9 3 1 - - 92.31%
LW 6 5 1 - - - 100.00%
JN 6 3 1 - - 2 66.67%
Totals 36 21 8 1 - 6 80.56%
Results - Batlow (20-11-2005)
No. Rider Horse Place Time Leg Speeds Total
Km/Hr
H/R bpm
Heavyweight
8 Steve Brisbane Annabella Jenaskali 1 8:12:00 18.7, 11.9, 7.3 12.20 28, 39, 49, 53 (Avg:47)
24 Laeli Hogan Follydown Flintstone 2 9:13:00 16.4, 9.8, 7.3 10.85 38, 39, 40, 45 (Avg:41)
21 Laurie Stevens Snowy Mountain Cascade 2 9:13:00 15.7, 9.9, 7.4 10.85 31, 36, 41, 43 (Avg:40)
9 Peter Norman Bellarine Bozo Retired/DNE L2 6:41:00 20.3, 8.4 11.97 47, 40, 46 (Avg:43)
4 John Dawson Vision Khaalid Retired/DNE L2 7:43:00 12.6, 8.7 10.37 32, 37, 48 (Avg:42)
15 Murray Woods Henley Farm Bimbashi Retired/DNE L2 7:43:00 12.8, 8.6 10.37 38, 42, 54 (Avg:48)
37 Stuart Lymbery Garonne Park Walker Retired/DNE L2 9:43:00 9.8, 7.0 8.23 47, 51, 60 (Avg:55)
5 Ian Brown Bicford Boy Heart Rate L2 0:00:00 10.8, 7.7 - 43, 48, 72 (Avg:60)
33 Allan Caslick Viclee Park Victor BGA Lame L2 0:00:00 20.3, 13.9 - 40, 43, 50 (Avg:46)
34 Neil Clarkson Espirit Sherwood Lame L2 0:00:00 12.5, 8.5 - 35, 43, 52 (Avg:47)
27 Ray Spence Emmaville Leopard Lame L1 0:00:00 15.4 - 38, 42 (Avg:42)
Middleweight
2 Duncan Satchell Alhambra Mirage 1 6:41:00 20.1, 14.0, 10.8 14.96 38, 40, 45, 45 (Avg:43)
7 Gary Tweedie Affinity 2 8:12:00 18.7, 11.9, 7.3 12.20 40, 42, 46, 49 (Avg:45)
18 Chris Noonan Bridle Track Dasha 3 8:39:00 15.6, 10.9, 8.2 11.56 33, 40, 44, 48 (Avg:44)
12 Ray Fulton Cromarty Park Morning Glory Retired/DNE L2 6:18:00 19.5, 9.4 12.70 39, 42, 48 (Avg:45)
26 Sharyn Coulston Boondilla Bootscoot Retired/DNE L2 6:52:00 12.6, 10.8 11.65 37, 44, 44 (Avg:44)
22 Rowena Robinson Karumba Nazrani Retired/DNE L2 7:43:00 12.5, 8.8 10.37 33, 41, 51 (Avg:46)
11 Sonya Ruprecht Jiah Bandit Retired/DNE L2 7:50:00 12.1, 8.7 10.21 41, 46, 49 (Avg:47)
19 Jody O'Leary-Gowen Victoria Park Jebadiah Retired/DNE L2 7:56:00 11.9, 8.6 10.08 49, 41, 54 (Avg:47)
32 Ben Caslick A'Landell Impression Retired/DNE L2 8:02:00 10.8, 9.1 9.96 41, 45, 47 (Avg:46)
25 Bruce Carter Malu Vale Kashaan Retired/DNE L2 8:15:00 12.1, 8.0 9.70 37, 43, 43 (Avg:43)
20 Josette Hussey Sir Nemeth Retired/DNE L2 9:08:00 10.8, 7.3 8.76 48, 55, 60 (Avg:57)
3 Michelle Heaney Heaney Bold Cedar Retired/DNE L2 9:43:00 9.8, 7.0 8.23 40, 45, 42 (Avg:43)
17 Angelina Patterson Tarkhim Shar Illusion Widthdrawn L1 0:00:00 - - 37, 39 (Avg:39)
Lightweight
10 Julie Scruse Danjera Kadhir 1 6:53:00 20.3, 13.9, 9.7 14.53 34, 43, 51, 52 (Avg:48)
1 Sara Beckinsale Gravy Train Retired/DNE L2 6:52:00 13.1, 10.4 11.65 38, 49, 48 (Avg:48)
28 Kate Bolas Cathbery Abariq Retired/DNE L2 6:53:00 14.5, 9.6 11.62 35, 42, 41 (Avg:41)
35 Cathy Banwell Lac-La-Biche Talique Retired/DNE L2 7:46:00 14.1, 8.1 10.30 39, 40, 50 (Avg:45)
14 Louise Stevens Denizen Retired/DNE L2 7:50:00 12.1, 8.7 10.21 36, 49, 48 (Avg:48)
6 Dawn Spicer Tamella Shah Retired/DNE L2 8:15:00 12.1, 8.0 9.70 36, 42, 40 (Avg:41)
Junior
31 Allix Jones Nioka Park Nikita 1 9:30:00 12.3, 9.7, 9.3 10.53 39, 45, 44, 53 (Avg:47)
13 Laila El Ayadi Hartley The Banger Retired/DNE L2 6:18:00 13.1, 12.3 12.70 48, 43, 58 (Avg:50)
30 Talea Hasko-Stewart Blake's Heaven Ventura Retired/DNE L2 7:46:00 14.1, 8.1 10.30 41, 46, 53 (Avg:49)
36 Cody Lymbery Garonne Park Jaybee Retired/DNE L2 9:43:00 9.8, 7.0 8.23 42, 43, 52 (Avg:47)
29 Lorien Hasko-Stewart Wantley Kaliph Lame L1 0:00:00 14.1 - 39, 46 (Avg:46)
23 Rhiannon Tweedie Judeesia Bandman Lame P/R 0:00:00 - - -